Time;durP1;ratioP1;P1;durP2;ratioP2;P2;SDS_P1;SDS_P2;PMS_P1;PMS_P2;Temp;Humidity;BMP_temperature;BMP_pressure;BME280_temperature;BME280_humidity;BME280_pressure;Samples;Min_cycle;Max_cycle;Signal;HPM_P1;HPM_P2
2024/04/09 00:01:33;;;;;;;;;;;;;;;24.47;37.53;100411.88;4543308;26;19937;-61
2024/04/09 00:03:37;;;;;;;;;;;;;;;24.47;37.98;100411.06;4543282;26;19932;-62
2024/04/09 00:05:40;;;;;;;;;;;;;;;24.49;37.96;100409.06;4543604;26;19934;-61
2024/04/09 00:07:43;;;;;;;;;;;;;;;24.48;37.41;100429.72;4543321;26;19927;-61
2024/04/09 00:09:45;;;;;;;;;;;;;;;24.46;37.42;100423.66;4543540;26;20418;-60
2024/04/09 00:11:47;;;;;;;;;;;;;;;24.46;37.51;100420.97;4543059;26;19952;-61
2024/04/09 00:13:51;;;;;;;;;;;;;;;24.44;37.36;100417.59;4543208;26;19928;-62
2024/04/09 00:15:52;;;;;;;;;;;;;;;24.41;37.77;100415.19;4543423;26;20267;-62
2024/04/09 00:17:55;;;;;;;;;;;;;;;24.40;37.55;100417.03;4543018;26;20334;-62
2024/04/09 00:19:57;;;;;;;;;;;;;;;24.39;37.87;100409.97;4543285;26;19928;-61
2024/04/09 00:21:59;;;;;;;;;;;;;;;24.38;37.75;100421.72;4542823;26;19936;-62
2024/04/09 00:24:00;;;;;;;;;;;;;;;24.29;37.36;100425.34;4511534;26;19928;-62
2024/04/09 00:26:02;;;;;;;;;;;;;;;24.31;37.71;100438.63;4512984;26;19929;-63
2024/04/09 00:28:05;;;;;;;;;;;;;;;24.33;37.65;100428.56;4533358;26;19935;-61
2024/04/09 00:30:07;;;;;;;;;;;;;;;24.33;37.67;100420.50;4543091;26;20369;-61
2024/04/09 00:32:09;;;;;;;;;;;;;;;24.32;37.25;100413.44;4542927;26;20000;-61
2024/04/09 00:34:10;;;;;;;;;;;;;;;24.30;37.13;100424.31;4542865;26;19935;-60
2024/04/09 00:36:12;;;;;;;;;;;;;;;24.31;37.33;100441.31;4542847;26;19939;-60
2024/04/09 00:38:15;;;;;;;;;;;;;;;24.29;37.21;100429.84;4542834;26;19939;-61
2024/04/09 00:40:21;;;;;;;;;;;;;;;24.29;36.94;100422.66;4543099;26;20277;-62
2024/04/09 00:42:23;;;;;;;;;;;;;;;24.27;37.08;100421.94;4542557;26;19935;-61
2024/04/09 00:44:28;;;;;;;;;;;;;;;24.27;37.02;100427.31;4542843;26;19928;-61
2024/04/09 00:46:29;;;;;;;;;;;;;;;24.27;36.95;100442.63;4542840;26;19992;-61
2024/04/09 00:48:31;;;;;;;;;;;;;;;24.26;37.26;100430.16;4542458;26;20365;-60
2024/04/09 00:50:34;;;;;;;;;;;;;;;24.23;36.93;100423.25;4542889;26;20262;-61
2024/04/09 00:52:37;;;;;;;;;;;;;;;24.21;36.79;100426.06;4542047;26;19928;-61
2024/04/09 00:54:39;;;;;;;;;;;;;;;24.20;36.78;100435.13;4541010;26;20265;-61
2024/04/09 00:56:43;;;;;;;;;;;;;;;24.19;36.92;100438.84;4542382;26;19928;-61
2024/04/09 00:58:46;;;;;;;;;;;;;;;24.19;37.43;100449.59;4542669;26;19939;-60
2024/04/09 01:00:48;;;;;;;;;;;;;;;24.18;36.77;100458.63;4542987;26;19939;-61
2024/04/09 01:02:50;;;;;;;;;;;;;;;24.18;37.13;100436.28;4543297;26;19934;-61
2024/04/09 01:04:54;;;;;;;;;;;;;;;24.18;37.23;100450.56;4542290;26;19928;-61
2024/04/09 01:06:56;;;;;;;;;;;;;;;24.18;36.29;100441.66;4481630;26;19940;-61
2024/04/09 01:08:59;;;;;;;;;;;;;;;24.17;36.98;100456.94;4526042;26;19928;-61
2024/04/09 01:11:00;;;;;;;;;;;;;;;24.16;36.78;100455.25;4542776;26;20366;-61
2024/04/09 01:13:02;;;;;;;;;;;;;;;24.16;36.77;100455.25;4542200;26;20241;-61
2024/04/09 01:15:04;;;;;;;;;;;;;;;24.16;36.88;100457.09;4542364;26;19992;-62
2024/04/09 01:17:06;;;;;;;;;;;;;;;24.15;36.50;100466.16;4542592;26;20000;-61
2024/04/09 01:19:08;;;;;;;;;;;;;;;24.14;36.52;100467.16;4542370;26;19928;-61
2024/04/09 01:21:10;;;;;;;;;;;;;;;24.13;36.66;100460.06;4542607;26;19968;-61
2024/04/09 01:23:12;;;;;;;;;;;;;;;24.12;36.35;100474.50;4510848;26;19940;-61
2024/04/09 01:25:14;;;;;;;;;;;;;;;24.07;36.65;100481.19;4542239;26;20348;-61
2024/04/09 01:27:16;;;;;;;;;;;;;;;24.06;36.70;100484.03;4542150;26;19932;-61
2024/04/09 01:29:18;;;;;;;;;;;;;;;24.03;36.96;100476.25;4542289;26;20262;-61
2024/04/09 01:31:21;;;;;;;;;;;;;;;24.04;36.80;100488.69;4542548;26;19927;-60
2024/04/09 01:33:24;;;;;;;;;;;;;;;24.02;36.81;100483.47;4542329;26;19935;-61
2024/04/09 01:35:27;;;;;;;;;;;;;;;24.01;36.16;100489.84;4541993;26;19935;-59
2024/04/09 01:37:28;;;;;;;;;;;;;;;24.01;35.96;100491.66;4542497;26;19928;-61
2024/04/09 01:39:35;;;;;;;;;;;;;;;24.00;35.99;100489.97;4542498;26;19940;-61
2024/04/09 01:41:37;;;;;;;;;;;;;;;23.99;35.92;100490.97;4541964;26;19935;-62
2024/04/09 01:43:39;;;;;;;;;;;;;;;23.97;35.74;100501.84;4542146;26;19928;-61
2024/04/09 01:45:41;;;;;;;;;;;;;;;23.97;36.08;100488.41;4542152;26;20265;-62
2024/04/09 01:47:44;;;;;;;;;;;;;;;23.96;36.30;100480.50;4542461;26;19972;-62
2024/04/09 01:49:47;;;;;;;;;;;;;;;23.95;35.70;100495.81;4542090;26;20016;-62
2024/04/09 01:51:49;;;;;;;;;;;;;;;23.96;36.60;100492.09;4542327;26;20362;-61
2024/04/09 01:53:50;;;;;;;;;;;;;;;23.96;35.84;100494.78;4542305;26;19956;-61
2024/04/09 01:55:59;;;;;;;;;;;;;;;23.95;35.71;100501.16;4541235;26;19996;-61
2024/04/09 01:58:01;;;;;;;;;;;;;;;23.95;36.58;100513.72;4542365;26;19935;-62
2024/04/09 02:00:11;;;;;;;;;;;;;;;23.93;36.39;100519.25;4541851;26;19973;-62
2024/04/09 02:02:16;;;;;;;;;;;;;;;23.90;36.12;100517.69;4541856;26;19935;-62
2024/04/09 02:04:18;;;;;;;;;;;;;;;23.90;36.25;100516.81;4508791;26;20258;-62
2024/04/09 02:06:20;;;;;;;;;;;;;;;23.88;36.34;100516.16;4541576;26;19934;-62
2024/04/09 02:08:22;;;;;;;;;;;;;;;23.87;36.19;100512.59;4541903;26;20362;-61
2024/04/09 02:10:24;;;;;;;;;;;;;;;23.88;36.28;100510.78;4541811;26;19943;-61
2024/04/09 02:12:26;;;;;;;;;;;;;;;23.86;36.50;100521.63;4510382;26;19932;-61
2024/04/09 02:14:27;;;;;;;;;;;;;;;23.87;35.91;100522.50;4542323;26;19928;-61
2024/04/09 02:16:30;;;;;;;;;;;;;;;23.85;36.50;100533.41;4541602;26;19939;-60
2024/04/09 02:18:32;;;;;;;;;;;;;;;23.85;36.29;100546.84;4510142;26;19937;-63
2024/04/09 02:20:33;;;;;;;;;;;;;;;23.83;35.82;100543.44;4513296;26;19970;-61
2024/04/09 02:22:35;;;;;;;;;;;;;;;23.83;35.71;100548.81;4531490;26;20262;-61
2024/04/09 02:24:37;;;;;;;;;;;;;;;23.82;35.63;100547.09;4541683;26;19936;-62
2024/04/09 02:26:38;;;;;;;;;;;;;;;23.81;36.48;100558.00;4541656;26;20016;-62
2024/04/09 02:28:40;;;;;;;;;;;;;;;23.80;35.56;100570.56;4541910;26;19935;-61
2024/04/09 02:30:42;;;;;;;;;;;;;;;23.77;35.70;100571.69;4541976;26;19932;-61
2024/04/09 02:32:45;;;;;;;;;;;;;;;23.75;36.23;100568.31;4541384;26;19940;-61
2024/04/09 02:34:47;;;;;;;;;;;;;;;23.74;35.64;100577.38;4541977;26;20135;-61
2024/04/09 02:36:48;;;;;;;;;;;;;;;23.74;35.85;100573.84;4541598;26;19928;-62
2024/04/09 02:38:50;;;;;;;;;;;;;;;23.73;36.27;100572.13;4541264;26;19932;-62
2024/04/09 02:40:52;;;;;;;;;;;;;;;23.72;35.78;100560.56;4542142;26;20370;-61
2024/04/09 02:42:56;;;;;;;;;;;;;;;23.73;35.34;100574.81;4541522;26;19932;-61
2024/04/09 02:44:58;;;;;;;;;;;;;;;23.74;35.72;100581.88;4510442;26;19932;-61
2024/04/09 02:46:59;;;;;;;;;;;;;;;23.74;35.27;100581.88;4541182;26;19928;-62
2024/04/09 02:49:03;;;;;;;;;;;;;;;23.73;35.14;100594.47;4521872;26;19936;-62
2024/04/09 02:51:05;;;;;;;;;;;;;;;23.73;36.14;100601.66;4541759;26;19931;-62
2024/04/09 02:53:07;;;;;;;;;;;;;;;23.72;35.65;100608.88;4540782;26;20293;-61
2024/04/09 02:55:09;;;;;;;;;;;;;;;23.72;35.22;100611.56;4541553;26;19932;-62
2024/04/09 02:57:10;;;;;;;;;;;;;;;23.72;35.60;100611.56;4541517;26;19928;-61
2024/04/09 02:59:13;;;;;;;;;;;;;;;23.71;35.55;100622.47;4541521;26;19935;-61
2024/04/09 03:01:15;;;;;;;;;;;;;;;23.70;36.13;100648.44;4541545;26;20406;-62
2024/04/09 03:03:16;;;;;;;;;;;;;;;23.66;35.36;100649.75;4541158;26;19996;-61
2024/04/09 03:05:27;;;;;;;;;;;;;;;23.65;36.06;100649.88;4541484;26;19996;-61
2024/04/09 03:07:29;;;;;;;;;;;;;;;23.65;35.98;100660.63;4540808;26;19935;-61
2024/04/09 03:09:31;;;;;;;;;;;;;;;23.64;36.05;100658.94;4541359;26;19934;-61
2024/04/09 03:11:33;;;;;;;;;;;;;;;23.63;36.02;100650.00;4541564;26;19928;-61
2024/04/09 03:13:35;;;;;;;;;;;;;;;23.63;35.79;100655.38;4541164;26;19935;-62
2024/04/09 03:15:37;;;;;;;;;;;;;;;23.62;36.11;100659.03;4540777;26;19935;-61
2024/04/09 03:17:42;;;;;;;;;;;;;;;23.61;35.17;100658.22;4541049;26;19956;-62
2024/04/09 03:19:48;;;;;;;;;;;;;;;23.63;35.14;100673.34;4540885;26;20339;-62
2024/04/09 03:21:51;;;;;;;;;;;;;;;23.63;35.17;100665.28;4540361;26;19943;-61
2024/04/09 03:23:53;;;;;;;;;;;;;;;23.61;35.74;100673.50;4530990;26;20230;-61
2024/04/09 03:25:54;;;;;;;;;;;;;;;23.60;35.90;100682.53;4541306;26;19996;-62
2024/04/09 03:27:56;;;;;;;;;;;;;;;23.58;35.41;100674.59;4541053;26;20254;-61
2024/04/09 03:29:59;;;;;;;;;;;;;;;23.57;34.98;100680.97;4541131;26;20374;-62
2024/04/09 03:32:01;;;;;;;;;;;;;;;23.57;34.90;100702.44;4509432;26;19965;-62
2024/04/09 03:34:03;;;;;;;;;;;;;;;23.56;35.52;100713.31;4541036;26;19935;-62
2024/04/09 03:36:07;;;;;;;;;;;;;;;23.53;35.74;100713.59;4540616;26;19928;-64
2024/04/09 03:38:09;;;;;;;;;;;;;;;23.51;35.12;100719.09;4540947;26;19931;-61
2024/04/09 03:40:12;;;;;;;;;;;;;;;23.50;35.81;100719.22;4540924;26;20377;-62
2024/04/09 03:42:14;;;;;;;;;;;;;;;23.47;35.74;100717.69;4509264;26;19936;-62
2024/04/09 03:44:16;;;;;;;;;;;;;;;23.48;35.84;100716.69;4561014;26;19928;-62
2024/04/09 03:46:18;;;;;;;;;;;;;;;23.48;35.02;100726.59;4526761;26;19927;-62
2024/04/09 03:48:20;;;;;;;;;;;;;;;23.48;35.16;100722.06;4509374;26;19932;-61
2024/04/09 03:50:22;;;;;;;;;;;;;;;23.46;35.19;100715.97;4540649;26;20460;-62
2024/04/09 03:52:24;;;;;;;;;;;;;;;23.47;35.26;100722.22;4540471;26;19935;-62
2024/04/09 03:54:26;;;;;;;;;;;;;;;23.48;35.03;100723.91;4540497;26;19969;-62
2024/04/09 03:56:28;;;;;;;;;;;;;;;23.49;35.07;100730.94;4540830;26;19928;-61
2024/04/09 03:58:30;;;;;;;;;;;;;;;23.49;34.82;100725.59;4540893;26;19928;-61
2024/04/09 04:00:31;;;;;;;;;;;;;;;23.48;34.91;100729.28;4540556;26;19928;-62
2024/04/09 04:02:34;;;;;;;;;;;;;;;23.45;34.92;100728.56;4540897;26;19939;-62
2024/04/09 04:04:35;;;;;;;;;;;;;;;23.47;35.08;100730.28;4540214;26;20389;-62
2024/04/09 04:06:37;;;;;;;;;;;;;;;23.44;35.22;100729.53;4540142;26;19928;-62
2024/04/09 04:08:40;;;;;;;;;;;;;;;23.41;35.04;100729.81;4540549;26;19940;-61
2024/04/09 04:10:42;;;;;;;;;;;;;;;23.38;35.49;100740.84;4540192;26;20017;-61
2024/04/09 04:12:44;;;;;;;;;;;;;;;23.40;34.82;100738.88;4540432;26;19936;-62
2024/04/09 04:14:46;;;;;;;;;;;;;;;23.39;34.86;100744.34;4540364;26;19940;-61
2024/04/09 04:16:48;;;;;;;;;;;;;;;23.37;34.81;100743.66;4540440;26;19939;-62
2024/04/09 04:18:50;;;;;;;;;;;;;;;23.34;35.13;100742.09;4508575;26;19940;-62
2024/04/09 04:20:52;;;;;;;;;;;;;;;23.36;35.20;100740.13;4507918;26;19936;-62
2024/04/09 04:22:54;;;;;;;;;;;;;;;23.38;35.19;100734.59;4508521;26;19929;-62
2024/04/09 04:24:56;;;;;;;;;;;;;;;23.38;34.59;100729.25;4540049;26;21606;-61
2024/04/09 04:26:57;;;;;;;;;;;;;;;23.37;34.90;100732.94;4540914;26;19943;-61
2024/04/09 04:28:59;;;;;;;;;;;;;;;23.35;35.07;100727.69;4543445;26;19928;-61
2024/04/09 04:31:04;;;;;;;;;;;;;;;23.34;34.48;100720.63;4511262;26;19936;-61
2024/04/09 04:33:05;;;;;;;;;;;;;;;23.33;35.13;100727.00;4543434;26;19928;-61
2024/04/09 04:35:07;;;;;;;;;;;;;;;23.32;34.92;100725.28;4542445;26;20326;-61
2024/04/09 04:37:09;;;;;;;;;;;;;;;23.31;35.23;100726.28;4543097;26;19940;-61
2024/04/09 04:39:11;;;;;;;;;;;;;;;23.28;35.12;100740.81;4543332;26;20265;-62
2024/04/09 04:41:13;;;;;;;;;;;;;;;23.26;35.18;100739.25;4542887;26;19928;-62
2024/04/09 04:43:15;;;;;;;;;;;;;;;23.23;35.11;100742.19;4543081;26;20015;-61
2024/04/09 04:45:17;;;;;;;;;;;;;;;23.22;35.02;100741.38;4543096;26;19928;-61
2024/04/09 04:47:19;;;;;;;;;;;;;;;23.22;35.41;100737.81;4542467;26;20020;-61
2024/04/09 04:49:20;;;;;;;;;;;;;;;23.21;35.39;100739.66;4542941;26;19928;-61
2024/04/09 04:51:22;;;;;;;;;;;;;;;23.20;34.88;100732.59;4542760;26;19935;-61
2024/04/09 04:53:24;;;;;;;;;;;;;;;23.21;34.72;100736.13;4511269;26;19940;-61
2024/04/09 04:55:26;;;;;;;;;;;;;;;23.20;34.72;100735.28;4541259;26;19928;-61
2024/04/09 04:57:27;;;;;;;;;;;;;;;23.19;35.22;100735.44;4540180;26;19932;-61
2024/04/09 04:59:29;;;;;;;;;;;;;;;23.19;35.07;100740.78;4543033;26;19928;-61
2024/04/09 05:01:31;;;;;;;;;;;;;;;23.19;34.81;100732.75;4542546;26;19928;-61
2024/04/09 05:03:34;;;;;;;;;;;;;;;23.18;35.14;100733.72;4510518;26;20368;-62
2024/04/09 05:05:36;;;;;;;;;;;;;;;23.17;35.37;100735.53;4542785;26;19940;-63
2024/04/09 05:07:38;;;;;;;;;;;;;;;23.16;34.97;100735.66;4542527;26;19950;-61
2024/04/09 05:09:40;;;;;;;;;;;;;;;23.16;34.84;100749.94;4542986;26;19934;-61
2024/04/09 05:11:41;;;;;;;;;;;;;;;23.14;34.90;100747.38;4542611;26;19939;-61
2024/04/09 05:13:43;;;;;;;;;;;;;;;23.10;35.05;100748.63;4542571;26;19981;-60
2024/04/09 05:15:45;;;;;;;;;;;;;;;23.08;35.14;100761.31;4542849;26;19940;-61
2024/04/09 05:17:47;;;;;;;;;;;;;;;23.07;34.79;100758.78;4542094;26;19935;-61
2024/04/09 05:19:51;;;;;;;;;;;;;;;23.06;35.21;100755.25;4542835;26;19928;-60
2024/04/09 05:21:54;;;;;;;;;;;;;;;23.06;34.76;100762.44;4542516;26;20281;-63
2024/04/09 05:23:56;;;;;;;;;;;;;;;23.06;35.11;100763.31;4542909;26;19996;-63
2024/04/09 05:25:58;;;;;;;;;;;;;;;23.06;34.89;100767.81;4542754;26;19935;-63
2024/04/09 05:27:59;;;;;;;;;;;;;;;23.07;34.32;100766.84;4542413;26;19928;-63
2024/04/09 05:30:01;;;;;;;;;;;;;;;23.07;34.55;100769.50;4542555;26;19928;-63
2024/04/09 05:32:04;;;;;;;;;;;;;;;23.05;35.15;100768.78;4542390;26;19935;-62
2024/04/09 05:34:06;;;;;;;;;;;;;;;23.05;34.72;100768.78;4542403;26;19928;-61
2024/04/09 05:36:07;;;;;;;;;;;;;;;23.05;34.34;100772.34;4542902;26;19928;-61
2024/04/09 05:38:10;;;;;;;;;;;;;;;23.04;34.52;100777.81;4542018;26;19928;-62
2024/04/09 05:40:11;;;;;;;;;;;;;;;23.02;34.57;100779.81;4542704;26;19928;-62
2024/04/09 05:42:13;;;;;;;;;;;;;;;23.00;34.34;100771.03;4542139;26;20290;-62
2024/04/09 05:44:15;;;;;;;;;;;;;;;23.00;34.33;100796.00;4539858;26;19928;-62
2024/04/09 05:46:18;;;;;;;;;;;;;;;23.00;34.68;100803.22;4542241;26;19975;-61
2024/04/09 05:48:20;;;;;;;;;;;;;;;22.98;35.36;100803.34;4541867;26;19936;-62
2024/04/09 05:50:22;;;;;;;;;;;;;;;22.97;34.57;100805.19;4542331;26;19940;-62
2024/04/09 05:52:24;;;;;;;;;;;;;;;22.98;34.67;100812.25;4542459;26;19935;-62
2024/04/09 05:54:26;;;;;;;;;;;;;;;22.99;34.41;100810.44;4542054;26;19935;-62
2024/04/09 05:56:28;;;;;;;;;;;;;;;23.00;34.56;100819.31;4542495;26;19928;-62
2024/04/09 05:58:29;;;;;;;;;;;;;;;22.99;35.20;100815.78;4542216;26;19928;-62
2024/04/09 06:00:31;;;;;;;;;;;;;;;22.99;34.31;100821.16;4542267;26;19948;-62
2024/04/09 06:02:33;;;;;;;;;;;;;;;22.98;35.08;100812.25;4541982;26;19928;-61
2024/04/09 06:04:35;;;;;;;;;;;;;;;22.98;34.81;100816.78;4541891;26;19928;-62
2024/04/09 06:06:37;;;;;;;;;;;;;;;22.97;34.26;100825.78;4542194;26;19928;-61
2024/04/09 06:08:38;;;;;;;;;;;;;;;22.97;34.55;100836.53;4541931;26;19927;-62
2024/04/09 06:10:40;;;;;;;;;;;;;;;22.96;34.21;100837.50;4541960;26;19935;-62
2024/04/09 06:12:42;;;;;;;;;;;;;;;22.95;34.99;100830.44;4542308;26;19928;-62
2024/04/09 06:14:44;;;;;;;;;;;;;;;22.93;34.42;100837.75;4510177;26;20413;-62
2024/04/09 06:16:46;;;;;;;;;;;;;;;22.88;35.16;100846.22;4509868;26;19964;-62
2024/04/09 06:18:48;;;;;;;;;;;;;;;22.87;34.63;100846.31;4509794;26;20318;-62
2024/04/09 06:20:50;;;;;;;;;;;;;;;22.88;34.54;100840.00;4512041;26;19996;-62
2024/04/09 06:22:52;;;;;;;;;;;;;;;22.87;34.16;100847.19;4512178;26;19936;-62
2024/04/09 06:24:53;;;;;;;;;;;;;;;22.87;34.96;100852.56;4511394;26;19928;-62
2024/04/09 06:26:55;;;;;;;;;;;;;;;22.88;34.77;100865.00;4511892;26;19929;-62
2024/04/09 06:28:57;;;;;;;;;;;;;;;22.88;34.42;100865.00;4511582;26;19953;-61
2024/04/09 06:30:59;;;;;;;;;;;;;;;22.89;34.90;100871.19;4511141;26;20381;-61
2024/04/09 06:33:01;;;;;;;;;;;;;;;22.88;34.88;100866.81;4511949;26;20001;-61
2024/04/09 06:35:03;;;;;;;;;;;;;;;22.87;33.93;100875.81;4511421;26;19932;-61
2024/04/09 06:37:04;;;;;;;;;;;;;;;22.86;34.09;100861.59;4511594;26;19940;-61
2024/04/09 06:39:06;;;;;;;;;;;;;;;22.86;34.90;100880.34;4511643;26;20243;-62
2024/04/09 06:41:08;;;;;;;;;;;;;;;22.86;34.28;100885.72;4509950;26;19996;-62
2024/04/09 06:43:10;;;;;;;;;;;;;;;22.83;34.03;100880.59;4481861;26;20262;-62
2024/04/09 06:45:12;;;;;;;;;;;;;;;22.83;34.04;100879.75;4495165;26;20009;-61
2024/04/09 06:47:14;;;;;;;;;;;;;;;22.83;34.49;100890.50;4511586;26;19929;-62
2024/04/09 06:49:16;;;;;;;;;;;;;;;22.81;34.60;100896.84;4511075;26;19957;-61
2024/04/09 06:51:17;;;;;;;;;;;;;;;22.80;34.79;100894.28;4510882;26;19982;-62
2024/04/09 06:53:19;;;;;;;;;;;;;;;22.79;34.24;100893.41;4510992;26;19928;-62
2024/04/09 06:55:21;;;;;;;;;;;;;;;22.79;34.02;100897.94;4509242;26;20366;-62
2024/04/09 06:57:22;;;;;;;;;;;;;;;22.79;34.10;100906.81;4511438;26;19928;-61
2024/04/09 06:59:24;;;;;;;;;;;;;;;22.79;33.90;100900.63;4510971;26;19939;-62
2024/04/09 07:01:26;;;;;;;;;;;;;;;22.79;34.31;100900.63;4507251;26;20370;-61
2024/04/09 07:03:28;;;;;;;;;;;;;;;22.79;34.57;100896.09;4510983;26;20018;-62
2024/04/09 07:05:30;;;;;;;;;;;;;;;22.80;34.20;100897.81;4510480;26;19936;-62
2024/04/09 07:07:32;;;;;;;;;;;;;;;22.80;33.73;100902.34;4511213;26;20381;-62
2024/04/09 07:09:34;;;;;;;;;;;;;;;22.80;34.74;100913.06;4511449;26;19929;-62
2024/04/09 07:11:36;;;;;;;;;;;;;;;22.82;34.20;100919.16;4510583;26;19933;-61
2024/04/09 07:13:38;;;;;;;;;;;;;;;22.81;33.68;100930.84;4510814;26;19933;-62
2024/04/09 07:15:42;;;;;;;;;;;;;;;22.80;33.96;100926.47;4510916;26;20332;-61
2024/04/09 07:17:43;;;;;;;;;;;;;;;22.79;33.64;100927.44;4511052;26;19970;-62
2024/04/09 07:19:46;;;;;;;;;;;;;;;22.77;34.14;100934.75;4528905;26;19932;-61
2024/04/09 07:21:48;;;;;;;;;;;;;;;22.75;34.39;100932.22;4540528;26;20258;-61
2024/04/09 07:23:50;;;;;;;;;;;;;;;22.74;34.68;100933.19;4531514;26;20362;-61
2024/04/09 07:25:51;;;;;;;;;;;;;;;22.74;34.60;100943.91;4540736;26;19928;-61
2024/04/09 07:27:53;;;;;;;;;;;;;;;22.77;34.09;100935.63;4541172;26;19928;-61
2024/04/09 07:29:55;;;;;;;;;;;;;;;22.80;34.29;100946.06;4540943;26;20369;-61
2024/04/09 07:31:56;;;;;;;;;;;;;;;22.82;34.19;100948.66;4540857;26;19932;-61
2024/04/09 07:33:58;;;;;;;;;;;;;;;22.85;34.06;100948.38;4540930;26;19927;-61
2024/04/09 07:36:00;;;;;;;;;;;;;;;22.81;33.83;100963.88;4541036;26;19936;-61
2024/04/09 07:38:02;;;;;;;;;;;;;;;22.80;33.87;100948.75;4540794;26;19928;-60
2024/04/09 07:40:07;;;;;;;;;;;;;;;22.79;34.35;100964.97;4541278;26;19932;-61
2024/04/09 07:42:09;;;;;;;;;;;;;;;22.78;34.05;100956.09;4540778;26;19943;-61
2024/04/09 07:44:11;;;;;;;;;;;;;;;22.77;33.95;100940.97;4508690;26;20051;-62
2024/04/09 07:46:13;;;;;;;;;;;;;;;22.79;33.81;100952.41;4540748;26;19979;-61
2024/04/09 07:48:15;;;;;;;;;;;;;;;22.81;33.93;100961.19;4540642;26;19928;-61
2024/04/09 07:50:17;;;;;;;;;;;;;;;22.82;33.37;100959.38;4540889;26;19935;-61
2024/04/09 07:52:19;;;;;;;;;;;;;;;22.81;34.06;100963.88;4540414;26;19996;-61
2024/04/09 07:54:21;;;;;;;;;;;;;;;22.80;33.91;100970.22;4540820;26;19935;-62
2024/04/09 07:56:23;;;;;;;;;;;;;;;22.79;34.31;100978.38;4540746;26;19935;-60
2024/04/09 07:58:25;;;;;;;;;;;;;;;22.80;34.26;100977.41;4539871;26;19928;-60
2024/04/09 08:00:28;;;;;;;;;;;;;;;22.80;33.55;100975.56;4540790;26;20356;-60
2024/04/09 08:02:29;;;;;;;;;;;;;;;22.81;33.26;100982.63;4543494;26;19936;-61
2024/04/09 08:04:32;;;;;;;;;;;;;;;22.79;34.18;100973.88;4523474;26;20403;-61
2024/04/09 08:06:34;;;;;;;;;;;;;;;22.81;34.13;100982.63;4543867;26;19997;-61
2024/04/09 08:08:36;;;;;;;;;;;;;;;22.85;33.78;100995.81;4543146;26;19934;-61
2024/04/09 08:10:43;;;;;;;;;;;;;;;22.83;34.06;101000.44;4543553;26;19928;-61
2024/04/09 08:12:49;;;;;;;;;;;;;;;22.81;33.62;100993.38;4543111;26;19935;-62
2024/04/09 08:14:52;;;;;;;;;;;;;;;22.81;33.73;101001.41;4491901;26;20001;-61
2024/04/09 08:16:54;;;;;;;;;;;;;;;22.80;33.32;101012.28;4543652;26;19935;-61
2024/04/09 08:18:55;;;;;;;;;;;;;;;22.77;33.82;101021.44;4543094;26;19927;-61
2024/04/09 08:20:57;;;;;;;;;;;;;;;22.74;33.66;101019.00;4543393;26;19974;-61
2024/04/09 08:23:00;;;;;;;;;;;;;;;22.75;33.35;101026.06;4532513;26;19928;-61
2024/04/09 08:25:02;;;;;;;;;;;;;;;22.73;33.23;101035.22;4543024;26;19928;-62
2024/04/09 08:27:04;;;;;;;;;;;;;;;22.73;33.28;101033.38;4543157;26;19935;-61
2024/04/09 08:29:08;;;;;;;;;;;;;;;22.73;33.80;101037.88;4542977;26;20273;-62
2024/04/09 08:31:12;;;;;;;;;;;;;;;22.71;33.70;101048.75;4543317;26;20025;-62
2024/04/09 08:33:14;;;;;;;;;;;;;;;22.68;33.76;101048.97;4543242;26;19951;-61
2024/04/09 08:35:19;;;;;;;;;;;;;;;22.67;34.31;101044.59;4543222;26;19928;-62
2024/04/09 08:37:21;;;;;;;;;;;;;;;22.65;34.23;101033.16;4543388;26;19928;-62
2024/04/09 08:39:24;;;;;;;;;;;;;;;22.63;34.24;101035.94;4542956;26;19940;-62
2024/04/09 08:41:28;;;;;;;;;;;;;;;22.63;33.69;101032.44;4542825;26;19995;-62
2024/04/09 08:43:30;;;;;;;;;;;;;;;22.65;34.50;101046.56;4542988;26;20322;-63
2024/04/09 08:45:32;;;;;;;;;;;;;;;22.63;33.67;101051.19;4542785;26;19928;-62
2024/04/09 08:47:34;;;;;;;;;;;;;;;22.66;33.93;101048.25;4543529;26;19936;-62
2024/04/09 08:49:36;;;;;;;;;;;;;;;22.68;34.36;101056.19;4542854;26;19952;-62
2024/04/09 08:51:40;;;;;;;;;;;;;;;22.67;33.79;101059.84;4543060;26;19999;-62
2024/04/09 08:53:44;;;;;;;;;;;;;;;22.68;34.42;101074.97;4542970;26;19928;-62
2024/04/09 08:55:47;;;;;;;;;;;;;;;22.70;33.73;101060.44;4542559;26;19927;-62
2024/04/09 08:57:48;;;;;;;;;;;;;;;22.74;34.17;101061.03;4543295;26;19935;-62
2024/04/09 08:59:50;;;;;;;;;;;;;;;22.78;33.75;101065.16;4542754;26;19928;-62
2024/04/09 09:01:52;;;;;;;;;;;;;;;22.79;33.63;101067.72;4543010;26;19928;-62
2024/04/09 09:03:54;;;;;;;;;;;;;;;22.83;33.75;101070.16;4543137;26;20376;-62
2024/04/09 09:06:04;;;;;;;;;;;;;;;22.88;34.09;101078.66;4541814;26;20374;-62
2024/04/09 09:08:06;;;;;;;;;;;;;;;22.88;33.67;101082.22;4543197;26;19935;-62
2024/04/09 09:10:11;;;;;;;;;;;;;;;22.90;34.29;101077.56;4542245;26;19928;-61
2024/04/09 09:12:13;;;;;;;;;;;;;;;22.92;34.22;101089.03;4542705;26;19938;-61
2024/04/09 09:14:15;;;;;;;;;;;;;;;22.92;33.29;101090.88;4542672;26;20373;-61
2024/04/09 09:16:17;;;;;;;;;;;;;;;22.92;33.39;101097.06;4542303;26;19928;-62
2024/04/09 09:18:23;;;;;;;;;;;;;;;22.96;33.15;101098.50;4543044;26;19936;-62
2024/04/09 09:20:25;;;;;;;;;;;;;;;22.98;33.44;101093.03;4542541;26;20409;-62
2024/04/09 09:22:35;;;;;;;;;;;;;;;22.99;33.90;101097.44;4533004;26;19940;-62
2024/04/09 09:24:37;;;;;;;;;;;;;;;23.00;33.82;101093.75;4512273;26;19929;-61
2024/04/09 09:26:39;;;;;;;;;;;;;;;23.04;33.64;101100.59;4542325;26;19928;-61
2024/04/09 09:28:42;;;;;;;;;;;;;;;23.05;33.11;101104.97;4543051;26;19932;-64
2024/04/09 09:30:45;;;;;;;;;;;;;;;23.07;33.72;101113.72;4542406;26;20377;-61
2024/04/09 09:32:48;;;;;;;;;;;;;;;23.11;33.19;101095.53;4542469;26;20339;-62
2024/04/09 09:35:00;;;;;;;;;;;;;;;23.12;33.12;101103.50;4542875;26;19981;-62
2024/04/09 09:37:03;;;;;;;;;;;;;;;23.17;33.32;101102.28;4540475;26;20421;-61
2024/04/09 09:39:07;;;;;;;;;;;;;;;23.19;33.62;101106.53;4541914;26;19949;-62
2024/04/09 09:41:10;;;;;;;;;;;;;;;23.21;33.16;101109.06;4542351;26;19964;-61
2024/04/09 09:43:14;;;;;;;;;;;;;;;23.19;32.97;101119.94;4542012;26;19928;-61
2024/04/09 09:45:16;;;;;;;;;;;;;;;23.21;33.58;101128.72;4542676;26;19928;-63
2024/04/09 09:47:19;;;;;;;;;;;;;;;23.20;33.12;101118.97;4509590;26;19928;-60
2024/04/09 09:49:21;;;;;;;;;;;;;;;23.20;32.82;101126.19;4542463;26;20282;-60
2024/04/09 09:51:23;;;;;;;;;;;;;;;23.21;32.39;101125.19;4542061;26;19937;-60
2024/04/09 09:53:26;;;;;;;;;;;;;;;23.23;32.75;101140.19;4541785;26;20289;-61
2024/04/09 09:55:29;;;;;;;;;;;;;;;23.24;32.72;101144.56;4542297;26;19928;-62
2024/04/09 09:57:33;;;;;;;;;;;;;;;23.26;32.76;101139.94;4510283;26;19929;-62
2024/04/09 09:59:39;;;;;;;;;;;;;;;23.28;32.99;101137.97;4542149;26;19996;-62
2024/04/09 10:01:48;;;;;;;;;;;;;;;23.29;32.96;101142.38;4541917;26;19932;-63
2024/04/09 10:03:50;;;;;;;;;;;;;;;23.25;31.27;101142.75;4542278;26;20330;-63
2024/04/09 10:05:52;;;;;;;;;;;;;;;23.24;32.61;101149.94;4542267;26;19938;-60
2024/04/09 10:07:53;;;;;;;;;;;;;;;23.27;32.65;101144.31;4541562;26;20673;-61
2024/04/09 10:09:55;;;;;;;;;;;;;;;23.31;32.05;101161.03;4542113;26;20326;-61
2024/04/09 10:11:57;;;;;;;;;;;;;;;23.35;32.98;101149.03;4541908;26;19928;-61
2024/04/09 10:14:01;;;;;;;;;;;;;;;23.36;32.19;101144.53;4542220;26;20035;-61
2024/04/09 10:16:03;;;;;;;;;;;;;;;23.37;32.48;101147.09;4542245;26;19973;-62
2024/04/09 10:18:05;;;;;;;;;;;;;;;23.38;32.61;101148.81;4541942;26;20370;-61
2024/04/09 10:20:15;;;;;;;;;;;;;;;23.38;31.91;101146.13;4542150;26;19928;-61
2024/04/09 10:22:17;;;;;;;;;;;;;;;23.41;32.86;101147.69;4541261;26;19960;-61
2024/04/09 10:24:19;;;;;;;;;;;;;;;23.43;31.87;101145.75;4540574;26;19928;-61
2024/04/09 10:26:21;;;;;;;;;;;;;;;23.42;32.41;101154.78;4510189;26;19932;-61
2024/04/09 10:28:27;;;;;;;;;;;;;;;23.41;32.17;101155.75;4541766;26;19928;-61